createdAt,value
2022-11-17T00:00:25.195Z,62.4
2022-11-17T00:01:27.325Z,62.3
2022-11-17T00:02:29.882Z,62.1
2022-11-17T00:03:32.934Z,62.2
2022-11-17T00:04:34.306Z,62.2
2022-11-17T00:05:36.909Z,62.2
2022-11-17T00:06:38.144Z,62.3
2022-11-17T00:07:39.939Z,62.4
2022-11-17T00:08:42.465Z,62.3
2022-11-17T00:09:44.285Z,62.2
2022-11-17T00:10:46.424Z,62.2
2022-11-17T00:11:49.134Z,62.3
2022-11-17T00:12:51.506Z,62.2
2022-11-17T00:13:53.113Z,62.1
2022-11-17T00:14:56.088Z,62.3
2022-11-17T00:15:59.365Z,62.4
2022-11-17T00:17:02.075Z,62.5
2022-11-17T00:18:04.906Z,62.5
2022-11-17T00:19:07.134Z,62
2022-11-17T00:20:10.693Z,62.5
2022-11-17T00:21:13.986Z,62.6
2022-11-17T00:22:16.585Z,62.6
2022-11-17T00:23:18.707Z,62.8
2022-11-17T00:24:21.425Z,62.7
2022-11-17T00:25:23.605Z,62.3
2022-11-17T00:26:26.345Z,62.5
2022-11-17T00:27:29.406Z,62.1
2022-11-17T00:28:33.343Z,62
2022-11-17T00:29:37.430Z,61.7
2022-11-17T00:30:36.495Z,61.7
2022-11-17T00:31:38.213Z,61.7
2022-11-17T00:32:40.480Z,61.7
2022-11-17T00:33:42.388Z,61.5
2022-11-17T00:34:44.405Z,61.5
2022-11-17T00:35:46.369Z,61.6
2022-11-17T00:36:48.406Z,61.5
2022-11-17T00:37:50.335Z,61.6
2022-11-17T00:38:52.405Z,61.9
2022-11-17T00:39:59.369Z,62.1
2022-11-17T00:40:56.438Z,62
2022-11-17T00:41:58.407Z,62.1
2022-11-17T00:43:00.567Z,61.9
2022-11-17T00:44:02.587Z,61.7
2022-11-17T00:45:04.648Z,61.8
2022-11-17T00:46:07.066Z,62
2022-11-17T00:47:09.477Z,62
2022-11-17T00:48:11.174Z,62
2022-11-17T00:49:14.143Z,62.2
2022-11-17T00:50:16.505Z,62.7
2022-11-17T00:51:19.220Z,62.9
2022-11-17T00:52:21.576Z,63
2022-11-17T00:53:23.247Z,62.8
2022-11-17T00:54:26.591Z,62.9
2022-11-17T00:55:28.802Z,62.7
2022-11-17T00:56:30.331Z,62.5
2022-11-17T00:57:32.506Z,62.7
2022-11-17T00:58:34.384Z,62.8
2022-11-17T00:59:36.147Z,62.8
2022-11-17T01:00:39.543Z,62.7
2022-11-17T01:01:41.384Z,62.7
2022-11-17T01:02:43.364Z,63
2022-11-17T01:03:45.413Z,63.3
2022-11-17T01:04:47.486Z,63.6
2022-11-17T01:05:49.413Z,63.7
2022-11-17T01:06:51.554Z,63.8
2022-11-17T01:07:53.450Z,63.8
2022-11-17T01:08:55.171Z,64.1
2022-11-17T01:09:58.427Z,64.3
2022-11-17T01:11:01.147Z,64.4
2022-11-17T01:12:03.326Z,64.2
2022-11-17T01:13:05.136Z,64
2022-11-17T01:14:07.333Z,63.6
2022-11-17T01:15:09.413Z,63.2
2022-11-17T01:16:11.606Z,62.8
2022-11-17T01:17:13.067Z,63
2022-11-17T01:18:15.085Z,63.3
2022-11-17T01:19:18.145Z,63.4
2022-11-17T01:20:21.329Z,63.6
2022-11-17T01:21:23.375Z,63.6
2022-11-17T01:22:25.406Z,63.6
2022-11-17T01:23:28.005Z,63.9
2022-11-17T01:24:29.706Z,64.1
2022-11-17T01:25:31.367Z,63.8
2022-11-17T01:26:33.317Z,63.7
2022-11-17T01:27:35.371Z,63.8
2022-11-17T01:28:37.094Z,63.8
2022-11-17T01:29:39.915Z,63.6
2022-11-17T01:30:41.187Z,63.4
2022-11-17T01:31:43.367Z,63.2
2022-11-17T01:32:45.369Z,63.1
2022-11-17T01:33:47.347Z,63.1
2022-11-17T01:34:49.353Z,63.2
2022-11-17T01:35:51.247Z,62.9
2022-11-17T01:36:53.147Z,63.2
2022-11-17T01:37:55.134Z,63.3
2022-11-17T01:38:57.331Z,63
2022-11-17T01:39:59.439Z,62.6
2022-11-17T01:41:01.874Z,63.1
2022-11-17T01:42:04.637Z,63.1
2022-11-17T01:43:07.566Z,63.4
2022-11-17T01:44:09.172Z,63.8
2022-11-17T01:45:11.137Z,63.9
2022-11-17T01:46:13.433Z,63.8
2022-11-17T01:47:15.366Z,63.5
2022-11-17T01:48:17.285Z,63.4
2022-11-17T01:49:19.485Z,63
2022-11-17T01:50:21.424Z,62.7
2022-11-17T01:51:23.977Z,62.6
2022-11-17T01:52:26.386Z,62.8
2022-11-17T01:53:28.591Z,62.9
2022-11-17T01:54:30.059Z,63
2022-11-17T01:55:31.895Z,63.1
2022-11-17T01:56:32.814Z,63.1
2022-11-17T01:57:34.181Z,63.4
2022-11-17T01:58:36.094Z,63.5
2022-11-17T01:59:38.381Z,63.3
2022-11-17T02:00:40.014Z,62.9
2022-11-17T02:01:42.281Z,62.6
2022-11-17T02:02:44.054Z,62.6
2022-11-17T02:06:52.289Z,62.3
2022-11-17T02:07:54.038Z,62.3
2022-11-17T02:08:56.534Z,62.5
2022-11-17T02:09:58.279Z,62.7
2022-11-17T02:10:59.995Z,62.8
2022-11-17T02:12:02.107Z,62.8
2022-11-17T02:13:04.153Z,63.1
2022-11-17T02:14:06.655Z,63
2022-11-17T02:15:07.995Z,63.1
2022-11-17T02:16:10.113Z,62.9
2022-11-17T02:17:14.396Z,62.6
2022-11-17T02:18:13.935Z,62.5
2022-11-17T02:19:14.858Z,62.4
2022-11-17T02:20:15.993Z,62.3
2022-11-17T02:21:18.036Z,62.3
2022-11-17T02:22:20.359Z,62.2
2022-11-17T02:23:22.035Z,62.3
2022-11-17T02:24:24.177Z,62.3
2022-11-17T02:25:27.260Z,62.1
2022-11-17T02:26:28.493Z,62.1
2022-11-17T02:27:30.078Z,61.9
2022-11-17T02:28:32.193Z,62.1
2022-11-17T02:29:34.214Z,62.1
2022-11-17T02:30:36.173Z,62.2
2022-11-17T02:31:37.853Z,62.3
2022-11-17T02:32:38.954Z,62.2
2022-11-17T02:33:39.993Z,62
2022-11-17T02:34:42.015Z,62.4
2022-11-17T02:35:44.121Z,62.5
2022-11-17T02:36:46.050Z,62.6
2022-11-17T02:37:47.972Z,62.6
2022-11-17T02:38:48.961Z,62.6
2022-11-17T02:39:49.983Z,62.5
2022-11-17T02:40:52.370Z,62.7
2022-11-17T02:41:53.973Z,62.8
2022-11-17T02:42:55.115Z,62.8
2022-11-17T02:43:57.000Z,62.6
2022-11-17T02:44:59.031Z,62.4
2022-11-17T02:46:00.932Z,62.5
2022-11-17T02:47:02.081Z,62.5
2022-11-17T02:48:04.160Z,62.6
2022-11-17T02:49:05.865Z,62.7
2022-11-17T02:50:07.094Z,62.8
2022-11-17T02:51:09.103Z,62.8
2022-11-17T02:52:10.863Z,62.9
2022-11-17T02:53:12.001Z,63.2
2022-11-17T02:54:14.097Z,63.2
2022-11-17T02:55:16.433Z,63
2022-11-17T02:56:18.035Z,63
2022-11-17T02:57:20.175Z,63.1
2022-11-17T02:58:22.020Z,63.2
2022-11-17T02:59:23.913Z,63.1
2022-11-17T03:00:25.013Z,63.2
2022-11-17T03:01:27.215Z,63.4
2022-11-17T03:02:29.155Z,63.2
2022-11-17T03:03:31.130Z,63.2
2022-11-17T03:04:33.072Z,63.2
2022-11-17T03:05:35.114Z,63.3
2022-11-17T03:06:36.952Z,63.5
2022-11-17T03:07:38.032Z,63.6
2022-11-17T03:08:40.273Z,63.5
2022-11-17T03:09:42.093Z,63.3
2022-11-17T03:10:44.093Z,63
2022-11-17T03:11:46.158Z,62.4
2022-11-17T03:12:48.153Z,62.5
2022-11-17T03:13:50.274Z,62.6
2022-11-17T03:14:52.071Z,62.8
2022-11-17T03:15:54.032Z,62.9
2022-11-17T03:16:56.061Z,62.6
2022-11-17T03:17:58.071Z,63
2022-11-17T03:19:00.171Z,63
2022-11-17T03:20:02.191Z,62.8
2022-11-17T03:21:03.955Z,63.1
2022-11-17T03:22:04.938Z,63.4
2022-11-17T03:23:06.084Z,63.5
2022-11-17T03:24:08.512Z,63.6
2022-11-17T03:25:10.112Z,63.8
2022-11-17T03:26:12.460Z,63.9
2022-11-17T03:27:14.152Z,64.1
2022-11-17T03:28:16.152Z,64.1
2022-11-17T03:29:18.352Z,64.1
2022-11-17T03:30:20.270Z,64
2022-11-17T03:31:22.365Z,63.9
2022-11-17T03:32:24.195Z,63.8
2022-11-17T03:33:26.211Z,63.8
2022-11-17T03:34:28.570Z,63.8
2022-11-17T03:35:30.104Z,64.2
2022-11-17T03:36:32.151Z,64.4
2022-11-17T03:37:34.271Z,64.5
2022-11-17T03:38:36.031Z,64.4
2022-11-17T03:39:38.118Z,64.6
2022-11-17T03:40:40.292Z,64.7
2022-11-17T03:41:42.049Z,64.6
2022-11-17T03:42:44.111Z,64.4
2022-11-17T03:43:46.231Z,64.3
2022-11-17T03:44:48.290Z,64.3
2022-11-17T03:45:50.310Z,64.3
2022-11-17T03:47:16.111Z,64.2
2022-11-17T03:48:18.212Z,64
2022-11-17T03:49:19.935Z,64.1
2022-11-17T03:50:20.932Z,64
2022-11-17T03:51:22.346Z,63.9
2022-11-17T03:52:24.149Z,64
2022-11-17T03:53:26.090Z,63.7
2022-11-17T03:54:28.650Z,63.7
2022-11-17T03:55:30.230Z,63.8
2022-11-17T03:56:32.189Z,64.1
2022-11-17T03:57:34.052Z,64
2022-11-17T03:58:36.482Z,63.9
2022-11-17T03:59:38.131Z,63.5
2022-11-17T04:00:40.181Z,63.1
2022-11-17T04:01:42.029Z,62.9
2022-11-17T04:02:42.922Z,62.8
2022-11-17T04:03:44.111Z,62.7
2022-11-17T04:04:46.030Z,62.4
2022-11-17T04:05:48.070Z,62.1
2022-11-17T04:06:50.225Z,61.5
2022-11-17T04:07:52.137Z,61.7
2022-11-17T04:08:53.990Z,61.9
2022-11-17T04:09:55.970Z,62.1
2022-11-17T04:10:56.978Z,62.3
2022-11-17T04:11:58.291Z,62.6
2022-11-17T04:13:00.151Z,62.8
2022-11-17T04:14:02.275Z,62.9
2022-11-17T04:15:04.071Z,62.8
2022-11-17T04:16:06.369Z,62.8
2022-11-17T04:17:08.190Z,62.7
2022-11-17T04:18:10.318Z,62.5
2022-11-17T04:19:12.038Z,62.6
2022-11-17T04:20:14.138Z,62.6
2022-11-17T04:21:16.190Z,62.3
2022-11-17T04:22:18.250Z,62.4
2022-11-17T04:23:20.190Z,62.2
2022-11-17T04:24:23.088Z,62.3
2022-11-17T04:25:25.298Z,62.5
2022-11-17T04:26:27.766Z,62.7
2022-11-17T04:27:29.332Z,62.9
2022-11-17T04:28:31.290Z,63
2022-11-17T04:29:33.391Z,63.1
2022-11-17T04:30:35.592Z,62.9
2022-11-17T04:31:38.010Z,63
2022-11-17T04:32:40.218Z,62.9
2022-11-17T04:33:42.351Z,62.8
2022-11-17T04:34:44.949Z,62.6
2022-11-17T04:35:46.034Z,62.5
2022-11-17T04:36:48.754Z,62.4
2022-11-17T04:37:50.199Z,62.1
2022-11-17T04:38:52.143Z,61.9
2022-11-17T04:39:54.190Z,61.6
2022-11-17T04:40:56.119Z,62
2022-11-17T04:41:58.250Z,62.2
2022-11-17T04:43:00.309Z,62.3
2022-11-17T04:44:02.131Z,62.4
2022-11-17T04:45:05.584Z,62.8
2022-11-17T04:46:07.414Z,62.8
2022-11-17T04:47:09.254Z,62.8
2022-11-17T04:48:11.050Z,62.9
2022-11-17T04:49:13.014Z,62.6
2022-11-17T04:50:14.250Z,62.8
2022-11-17T04:51:16.191Z,62.9
2022-11-17T04:52:18.151Z,63.1
2022-11-17T04:53:20.119Z,63
2022-11-17T04:54:22.243Z,63
2022-11-17T04:55:24.160Z,63.1
2022-11-17T04:56:26.360Z,63.5
2022-11-17T04:57:28.303Z,63.5
2022-11-17T04:58:30.313Z,63.7
2022-11-17T04:59:32.169Z,63.7
2022-11-17T05:00:34.186Z,64
2022-11-17T05:01:36.225Z,64.2
2022-11-17T05:02:38.153Z,64
2022-11-17T05:03:40.168Z,63.7
2022-11-17T05:04:41.979Z,63.3
2022-11-17T05:05:43.013Z,63.2
2022-11-17T05:06:43.994Z,63.2
2022-11-17T05:07:45.312Z,62.9
2022-11-17T05:08:47.690Z,62.5
2022-11-17T05:09:49.631Z,62.2
2022-11-17T05:10:51.859Z,61.8
2022-11-17T05:11:53.290Z,61.7
2022-11-17T05:12:55.480Z,61.9
2022-11-17T05:13:57.071Z,61.8
2022-11-17T05:14:59.212Z,61.8
2022-11-17T05:16:01.234Z,61.8
2022-11-17T05:17:08.575Z,61.5
2022-11-17T05:18:05.111Z,61.7
2022-11-17T05:19:06.976Z,61.8
2022-11-17T05:20:08.034Z,61.8
2022-11-17T05:21:09.291Z,61.7
2022-11-17T05:22:11.411Z,61.8
2022-11-17T05:23:13.158Z,61.7
2022-11-17T05:24:15.134Z,61.9
2022-11-17T05:25:17.119Z,61.9
2022-11-17T05:26:19.711Z,62
2022-11-17T05:27:21.919Z,62
2022-11-17T05:28:22.992Z,62.1
2022-11-17T05:29:24.051Z,62.5
2022-11-17T05:30:25.040Z,62.7
2022-11-17T05:31:26.114Z,62.8
2022-11-17T05:32:28.218Z,63.1
2022-11-17T05:33:33.569Z,63.3
2022-11-17T05:34:32.232Z,63.3
2022-11-17T05:35:34.151Z,63
2022-11-17T05:36:36.452Z,62.9
2022-11-17T05:37:38.153Z,62.8
2022-11-17T05:38:40.171Z,62.9
2022-11-17T05:39:42.799Z,62.8
2022-11-17T05:40:44.106Z,62.6
2022-11-17T05:41:46.394Z,62.8
2022-11-17T05:42:51.778Z,62.9
2022-11-17T05:43:50.320Z,62.8
2022-11-17T05:44:52.239Z,62.8
2022-11-17T05:45:54.629Z,62.7
2022-11-17T05:46:56.168Z,62.3
2022-11-17T05:47:57.273Z,62.1
2022-11-17T05:48:59.173Z,62
2022-11-17T05:50:01.332Z,62
2022-11-17T05:51:03.214Z,61.9
2022-11-17T05:52:05.172Z,62.1
2022-11-17T05:53:07.212Z,62.3
2022-11-17T05:54:09.449Z,62.4
2022-11-17T05:55:11.500Z,62
2022-11-17T05:56:13.021Z,61.9
2022-11-17T05:57:13.940Z,62.1
2022-11-17T05:58:15.012Z,62
2022-11-17T05:59:16.012Z,62
2022-11-17T06:00:17.100Z,62.1
2022-11-17T06:01:19.152Z,62
2022-11-17T06:02:21.251Z,61.8
2022-11-17T06:03:23.251Z,61.8
2022-11-17T06:04:25.233Z,61.8
2022-11-17T06:05:27.372Z,61.9
2022-11-17T06:06:29.212Z,62.1
2022-11-17T06:07:31.208Z,61.9
2022-11-17T06:08:35.075Z,61.7
2022-11-17T06:09:37.512Z,61.6
2022-11-17T06:10:39.432Z,61.5
2022-11-17T06:11:41.192Z,61.3
2022-11-17T06:12:43.377Z,61.1
2022-11-17T06:13:45.235Z,61.1
2022-11-17T06:14:47.472Z,61.2
2022-11-17T06:15:49.349Z,61.1
2022-11-17T06:16:51.752Z,60.8
2022-11-17T06:17:53.253Z,60.5
2022-11-17T06:18:55.120Z,60.4
2022-11-17T06:19:57.840Z,60.5
2022-11-17T06:20:59.193Z,60.6
2022-11-17T06:22:12.000Z,60.7
2022-11-17T06:23:03.035Z,60.9
2022-11-17T06:24:04.056Z,61
2022-11-17T06:25:05.221Z,61.2
2022-11-17T06:26:07.320Z,60.8
2022-11-17T06:27:09.252Z,60.9
2022-11-17T06:28:16.053Z,60.9
2022-11-17T06:29:17.134Z,61.3
2022-11-17T06:30:19.272Z,61.4
2022-11-17T06:31:21.272Z,61.6
2022-11-17T06:32:23.599Z,61.6
2022-11-17T06:33:25.215Z,61.7
2022-11-17T06:34:27.212Z,61.7
2022-11-17T06:35:29.592Z,62
2022-11-17T06:36:31.093Z,62.2
2022-11-17T06:37:33.075Z,62.2
2022-11-17T06:38:34.413Z,62.2
2022-11-17T06:39:36.352Z,62.3
2022-11-17T06:40:38.073Z,62.4
2022-11-17T06:41:39.013Z,62.3
2022-11-17T06:42:40.128Z,62.4
2022-11-17T06:43:42.029Z,62.2
2022-11-17T06:44:43.055Z,62.3
2022-11-17T06:45:44.135Z,62.4
2022-11-17T06:46:48.915Z,62.5
2022-11-17T06:47:48.234Z,62.6
2022-11-17T06:48:50.268Z,62.6
2022-11-17T06:49:52.333Z,62.6
2022-11-17T06:50:54.232Z,62.4
2022-11-17T06:51:56.093Z,62.5
2022-11-17T06:52:56.991Z,62.5
2022-11-17T06:53:58.281Z,62.4
2022-11-17T06:55:00.252Z,62.3
2022-11-17T06:56:02.515Z,62.6
2022-11-17T06:57:04.189Z,62.5
2022-11-17T06:58:06.255Z,62.6
2022-11-17T06:59:08.100Z,62
2022-11-17T07:00:09.197Z,62.4
2022-11-17T07:01:11.706Z,62.5
2022-11-17T07:02:13.798Z,62.5
2022-11-17T07:03:15.253Z,62.4
2022-11-17T07:04:17.354Z,62.2
2022-11-17T07:05:19.280Z,62.4
2022-11-17T07:06:21.273Z,62.4
2022-11-17T07:07:23.735Z,62.4
2022-11-17T07:08:25.115Z,62.5
2022-11-17T07:09:27.554Z,62.3
2022-11-17T07:10:29.177Z,62.1
2022-11-17T07:11:31.081Z,61.8
2022-11-17T07:12:33.218Z,61.7
2022-11-17T07:13:35.484Z,61.6
2022-11-17T07:14:37.842Z,61.6
2022-11-17T07:15:39.054Z,61.5
2022-11-17T07:16:40.093Z,61.9
2022-11-17T07:17:41.106Z,62
2022-11-17T07:18:42.153Z,62.1
2022-11-17T07:19:44.184Z,62
2022-11-17T07:20:45.230Z,62.1
2022-11-17T07:21:47.436Z,62.4
2022-11-17T07:22:49.435Z,62.3
2022-11-17T07:23:51.334Z,62.5
2022-11-17T07:24:53.056Z,62.8
2022-11-17T07:25:55.324Z,62.6
2022-11-17T07:26:57.280Z,62.2
2022-11-17T07:27:59.736Z,62.6
2022-11-17T07:29:01.213Z,63
2022-11-17T07:30:03.272Z,63.4
2022-11-17T07:31:05.354Z,63.3
2022-11-17T07:32:07.151Z,63.3
2022-11-17T07:33:10.397Z,63.2
2022-11-17T07:34:12.116Z,63.1
2022-11-17T07:35:13.839Z,62.8
2022-11-17T07:36:15.434Z,62.8
2022-11-17T07:37:17.872Z,62.6
2022-11-17T07:38:19.234Z,62.4
2022-11-17T07:39:21.871Z,62.5
2022-11-17T07:40:23.361Z,62.5
2022-11-17T07:41:24.887Z,62.4
2022-11-17T07:42:26.581Z,62.4
2022-11-17T07:43:28.073Z,62.4
2022-11-17T07:44:29.078Z,62.6
2022-11-17T07:45:32.177Z,62.7
2022-11-17T07:46:32.233Z,62.3
2022-11-17T07:47:34.257Z,61.9
2022-11-17T07:48:36.682Z,61.8
2022-11-17T07:49:38.013Z,61.9
2022-11-17T07:50:39.854Z,62
2022-11-17T07:51:41.134Z,62
2022-11-17T07:52:43.153Z,61.9
2022-11-17T07:53:45.273Z,61.6
2022-11-17T07:54:47.118Z,61.2
2022-11-17T07:55:48.172Z,61.5
2022-11-17T07:56:50.239Z,61.5
2022-11-17T07:57:52.114Z,61.2
2022-11-17T07:58:53.101Z,61.6
2022-11-17T07:59:54.073Z,61.8
2022-11-17T08:00:55.180Z,61.8
2022-11-17T08:01:57.325Z,61.8
2022-11-17T08:02:59.453Z,62.1
2022-11-17T08:04:01.947Z,62.3
2022-11-17T08:05:03.853Z,62.3
2022-11-17T08:06:05.420Z,62
2022-11-17T08:07:07.949Z,61.9
2022-11-17T08:08:09.450Z,62.2
2022-11-17T08:09:11.513Z,62.4
2022-11-17T08:10:13.422Z,62.5
2022-11-17T08:11:15.321Z,62.1
2022-11-17T08:12:17.274Z,62
2022-11-17T08:13:19.216Z,61.9
2022-11-17T08:14:21.512Z,61.7
2022-11-17T08:15:23.692Z,61.4
2022-11-17T08:16:25.377Z,61.3
2022-11-17T08:17:27.072Z,61.5
2022-11-17T08:18:28.335Z,61.6
2022-11-17T08:19:30.214Z,61.5
2022-11-17T08:20:32.294Z,61.3
2022-11-17T08:21:34.893Z,61.4
2022-11-17T08:22:36.046Z,61.5
2022-11-17T08:23:37.095Z,61.6
2022-11-17T08:24:38.693Z,61.6
2022-11-17T08:25:40.062Z,61.5
2022-11-17T08:26:41.563Z,61.4
2022-11-17T08:27:43.072Z,61.5
2022-11-17T08:28:44.399Z,61.6
2022-11-17T08:29:46.379Z,61.4
2022-11-17T08:30:48.339Z,61.2
2022-11-17T08:31:50.279Z,61
2022-11-17T08:32:52.163Z,61.1
2022-11-17T08:33:54.118Z,61.2
2022-11-17T08:34:55.192Z,61.2
2022-11-17T08:35:57.093Z,61.3
2022-11-17T08:36:58.069Z,61.5
2022-11-17T08:37:59.101Z,61.6
2022-11-17T08:39:00.170Z,61.6
2022-11-17T08:40:02.494Z,61.7
2022-11-17T08:41:04.153Z,61.8
2022-11-17T08:42:06.094Z,61.8
2022-11-17T08:43:07.021Z,61.7
2022-11-17T08:44:08.534Z,61.6
2022-11-17T08:45:10.193Z,61.4
2022-11-17T08:46:12.134Z,61.5
2022-11-17T08:47:13.087Z,61.7
2022-11-17T08:48:14.011Z,61.9
2022-11-17T08:49:15.121Z,62
2022-11-17T08:50:16.037Z,62.2
2022-11-17T08:51:17.012Z,62
2022-11-17T08:52:18.260Z,61.9
2022-11-17T08:53:19.250Z,62
2022-11-17T08:54:21.004Z,62.3
2022-11-17T08:55:22.321Z,62.5
2022-11-17T08:56:24.193Z,62
2022-11-17T08:57:26.165Z,61.7
2022-11-17T08:58:27.095Z,61.8
2022-11-17T08:59:28.726Z,61.8
2022-11-17T09:00:30.121Z,61.9
2022-11-17T09:01:32.374Z,62.3
2022-11-17T09:02:34.363Z,62.3
2022-11-17T09:03:36.392Z,62.3
2022-11-17T09:04:38.233Z,62.3
2022-11-17T09:05:40.252Z,62.3
2022-11-17T09:06:42.132Z,62.3
2022-11-17T09:07:44.457Z,62.2
2022-11-17T09:08:47.302Z,62.2
2022-11-17T09:09:49.130Z,62.3
2022-11-17T09:10:50.094Z,62.3
2022-11-17T09:11:52.693Z,62.4
2022-11-17T09:12:54.300Z,62.5
2022-11-17T09:13:56.255Z,62.5
2022-11-17T09:14:58.412Z,62
2022-11-17T09:16:00.339Z,61.5
2022-11-17T09:17:02.280Z,61.4
2022-11-17T09:18:05.053Z,61.3
2022-11-17T09:19:06.393Z,61
2022-11-17T09:20:08.183Z,61.6
2022-11-17T09:21:10.420Z,61.7
2022-11-17T09:22:12.304Z,61.9
2022-11-17T09:23:14.844Z,61.9
2022-11-17T09:24:16.499Z,62.1
2022-11-17T09:25:18.312Z,61.7
2022-11-17T09:26:20.292Z,61.4
2022-11-17T09:27:22.354Z,61.1
2022-11-17T09:28:24.336Z,60.8
2022-11-17T09:29:26.720Z,60.7
2022-11-17T09:30:28.260Z,60.6
2022-11-17T09:31:30.459Z,59.9
2022-11-17T09:32:32.312Z,59.4
2022-11-17T09:33:34.632Z,59.6
2022-11-17T09:34:36.840Z,59.6
2022-11-17T09:35:38.140Z,59.4
2022-11-17T09:36:39.442Z,59.4
2022-11-17T09:37:41.751Z,59.4
2022-11-17T09:38:43.778Z,59.6
2022-11-17T09:39:45.152Z,60
2022-11-17T09:40:47.549Z,60.3
2022-11-17T09:41:50.092Z,60.4
2022-11-17T09:42:51.472Z,60.5
2022-11-17T09:43:53.901Z,60.6
2022-11-17T09:44:55.513Z,60.5
2022-11-17T09:45:57.393Z,60.4
2022-11-17T09:46:59.657Z,60.2
2022-11-17T09:48:25.806Z,59.5
2022-11-17T09:49:03.292Z,60
2022-11-17T09:50:05.433Z,59.8
2022-11-17T09:51:07.320Z,59.8
2022-11-17T09:52:09.286Z,59.8
2022-11-17T09:53:11.518Z,60.2
2022-11-17T09:54:13.483Z,60.4
2022-11-17T09:55:15.654Z,60.4
2022-11-17T09:56:17.112Z,60.3
2022-11-17T09:57:18.954Z,60.3
2022-11-17T09:58:20.593Z,60.1
2022-11-17T09:59:22.300Z,59.7
2022-11-17T10:00:24.712Z,59.3
2022-11-17T10:01:26.241Z,59.2
2022-11-17T10:02:29.156Z,59.5
2022-11-17T10:03:30.100Z,59.5
2022-11-17T10:04:31.152Z,59.3
2022-11-17T10:05:32.172Z,59.2
2022-11-17T10:06:34.735Z,59.2
2022-11-17T10:07:36.288Z,59.5
2022-11-17T10:08:38.292Z,59.8
2022-11-17T10:09:40.335Z,59.9
2022-11-17T10:10:42.694Z,60.1
2022-11-17T10:11:44.293Z,60.1
2022-11-17T10:12:46.953Z,60
2022-11-17T10:13:49.433Z,59.3
2022-11-17T10:14:51.407Z,58.9
2022-11-17T10:15:53.972Z,58.3
2022-11-17T10:16:55.617Z,57.9
2022-11-17T10:17:57.354Z,57.7
2022-11-17T10:18:59.147Z,57.9
2022-11-17T10:20:00.630Z,58.3
2022-11-17T10:21:02.912Z,58.3
2022-11-17T10:22:04.733Z,58.9
2022-11-17T10:23:06.952Z,59.1
2022-11-17T10:24:08.273Z,59.3
2022-11-17T10:25:11.349Z,59.3
2022-11-17T10:26:13.540Z,59.5
2022-11-17T10:27:15.741Z,59.4
2022-11-17T10:28:17.412Z,59.2
2022-11-17T10:29:19.313Z,59.2
2022-11-17T10:30:21.996Z,59.4
2022-11-17T10:31:23.219Z,59.3
2022-11-17T10:32:25.432Z,59.3
2022-11-17T10:33:27.172Z,59.4
2022-11-17T10:34:30.426Z,59.2
2022-11-17T10:35:29.831Z,59.2
2022-11-17T10:36:31.232Z,59.3
2022-11-17T10:37:33.353Z,59.2
2022-11-17T10:38:35.392Z,59
2022-11-17T10:39:37.370Z,59.1
2022-11-17T10:40:39.110Z,59.2
2022-11-17T10:41:40.093Z,59.4
2022-11-17T10:42:42.102Z,59.5
2022-11-17T10:43:43.749Z,59.4
2022-11-17T10:44:45.112Z,59.5
2022-11-17T10:45:46.353Z,59.3
2022-11-17T10:46:49.081Z,58.5
2022-11-17T10:47:50.235Z,58.4
2022-11-17T10:48:52.600Z,58.9
2022-11-17T10:49:55.013Z,58.9
2022-11-17T10:50:56.874Z,59
2022-11-17T10:51:58.303Z,59.2
2022-11-17T10:53:00.253Z,59.4
2022-11-17T10:54:03.735Z,59.4
2022-11-17T10:55:05.330Z,58.8
2022-11-17T10:56:07.795Z,58.7
2022-11-17T10:57:09.323Z,58.6
2022-11-17T10:58:11.375Z,58.7
2022-11-17T10:59:13.238Z,58.8
2022-11-17T11:00:15.326Z,59.3
2022-11-17T11:01:19.778Z,59.6
2022-11-17T11:02:19.472Z,59.7
2022-11-17T11:03:21.352Z,60
2022-11-17T11:04:23.432Z,60
2022-11-17T11:05:25.141Z,59.8
2022-11-17T11:06:26.972Z,59.5
2022-11-17T11:07:28.475Z,59.4
2022-11-17T11:08:29.741Z,59.5
2022-11-17T11:09:31.439Z,59.1
2022-11-17T11:10:33.772Z,58.9
2022-11-17T11:11:36.477Z,58.9
2022-11-17T11:12:37.193Z,58.8
2022-11-17T11:13:38.354Z,59.4
2022-11-17T11:14:40.556Z,59.7
2022-11-17T11:15:42.940Z,59.8
2022-11-17T11:16:47.971Z,59.6
2022-11-17T11:17:46.312Z,59.2
2022-11-17T11:18:48.934Z,59.2
2022-11-17T11:19:50.313Z,59.1
2022-11-17T11:20:52.306Z,59
2022-11-17T11:21:54.712Z,58.8
2022-11-17T11:22:56.372Z,58.1
2022-11-17T11:23:58.414Z,58.5
2022-11-17T11:25:00.733Z,58.4
2022-11-17T11:26:02.232Z,58.1
2022-11-17T11:27:04.312Z,58.2
2022-11-17T11:28:06.213Z,58.4
2022-11-17T11:29:07.324Z,58.2
2022-11-17T11:30:09.843Z,58.2
2022-11-17T11:31:11.236Z,58.2
2022-11-17T11:32:13.353Z,58.5
2022-11-17T11:33:15.431Z,58.7
2022-11-17T11:34:17.552Z,58.6
2022-11-17T11:35:19.732Z,58.7
2022-11-17T11:36:21.376Z,58.7
2022-11-17T11:37:23.792Z,58.7
2022-11-17T11:38:25.180Z,58.8
2022-11-17T11:39:26.714Z,59.1
2022-11-17T11:40:28.254Z,59.2
2022-11-17T11:41:30.052Z,58.7
2022-11-17T11:42:31.438Z,58.7
2022-11-17T11:43:33.120Z,58.7
2022-11-17T11:44:34.553Z,58.7
2022-11-17T11:45:36.232Z,58.5
2022-11-17T11:46:38.152Z,58.3
2022-11-17T11:47:39.134Z,58.2
2022-11-17T11:48:40.427Z,58.1
2022-11-17T11:49:42.841Z,57.5
2022-11-17T11:50:44.189Z,57.2
2022-11-17T11:51:45.593Z,56.9
2022-11-17T11:52:47.836Z,56.7
2022-11-17T11:53:49.172Z,56.8
2022-11-17T11:54:51.129Z,56.9
2022-11-17T11:55:51.271Z,56.8
2022-11-17T11:56:53.469Z,56.8
2022-11-17T11:57:55.210Z,57.1
2022-11-17T11:58:56.219Z,57.5
2022-11-17T12:00:00.967Z,57.8
2022-11-17T12:00:58.273Z,58.2
2022-11-17T12:02:00.361Z,58.3
2022-11-17T12:03:02.529Z,58.6
2022-11-17T12:04:04.680Z,58.7
2022-11-17T12:05:06.332Z,58.4
2022-11-17T12:06:08.354Z,58.4
2022-11-17T12:07:10.342Z,58.7
2022-11-17T12:08:12.474Z,58.9
2022-11-17T12:09:15.454Z,58.7
2022-11-17T12:10:17.371Z,58.6
2022-11-17T12:11:19.345Z,58.1
2022-11-17T12:12:21.416Z,57.9
2022-11-17T12:13:23.479Z,57.5
2022-11-17T12:14:25.346Z,57.5
2022-11-17T12:15:27.394Z,57.3
2022-11-17T12:16:30.376Z,56.3
2022-11-17T12:17:32.492Z,56.3
2022-11-17T12:18:34.272Z,56.3
2022-11-17T12:19:36.293Z,56.2
2022-11-17T12:20:38.406Z,56.2
2022-11-17T12:21:40.214Z,55.8
2022-11-17T12:22:41.441Z,56.2
2022-11-17T12:23:43.195Z,56.4
2022-11-17T12:24:45.213Z,56
2022-11-17T12:25:50.560Z,55.9
2022-11-17T12:26:48.193Z,56.3
2022-11-17T12:27:49.711Z,56.4
2022-11-17T12:28:51.299Z,56.4
2022-11-17T12:29:53.392Z,56.6
2022-11-17T12:30:55.318Z,57
2022-11-17T12:31:57.162Z,57.4
2022-11-17T12:32:58.181Z,57
2022-11-17T12:33:59.114Z,56.8
2022-11-17T12:35:00.332Z,56.7
2022-11-17T12:36:02.256Z,56.9
2022-11-17T12:37:04.303Z,57
2022-11-17T12:38:06.139Z,57
2022-11-17T12:39:07.331Z,56.9
2022-11-17T12:40:09.382Z,57
2022-11-17T12:41:11.289Z,57
2022-11-17T12:42:13.252Z,56.7
2022-11-17T12:43:14.253Z,56.3
2022-11-17T12:44:15.238Z,56.5
2022-11-17T12:45:16.293Z,56.5
2022-11-17T12:46:18.495Z,56.2
2022-11-17T12:47:20.152Z,55.9
2022-11-17T12:48:33.274Z,56.1
2022-11-17T12:49:22.240Z,56.1
2022-11-17T12:50:23.282Z,56.2
2022-11-17T12:51:25.152Z,55.8
2022-11-17T12:52:26.253Z,56
2022-11-17T12:53:27.213Z,55.8
2022-11-17T12:54:28.171Z,55.2
2022-11-17T12:55:29.974Z,55.1
2022-11-17T12:56:31.692Z,55.1
2022-11-17T12:57:34.132Z,55.6
2022-11-17T12:58:35.542Z,56.2
2022-11-17T12:59:38.012Z,56.5
2022-11-17T13:00:39.252Z,56.5
2022-11-17T13:01:40.190Z,56.6
2022-11-17T13:02:42.512Z,56.6
2022-11-17T13:03:44.972Z,56.6
2022-11-17T13:04:49.264Z,56.7
2022-11-17T13:05:53.824Z,56.4
2022-11-17T13:06:50.474Z,56.2
2022-11-17T13:07:52.253Z,56
2022-11-17T13:08:53.192Z,55.9
2022-11-17T13:09:54.516Z,55.8
2022-11-17T13:10:56.715Z,55.5
2022-11-17T13:11:58.679Z,55.8
2022-11-17T13:13:00.183Z,56
2022-11-17T13:14:01.330Z,56
2022-11-17T13:15:04.615Z,55.5
2022-11-17T13:16:07.734Z,55.2
2022-11-17T13:17:09.253Z,55
2022-11-17T13:18:10.153Z,55
2022-11-17T13:19:11.295Z,54.6
2022-11-17T13:20:13.702Z,54.5
2022-11-17T13:21:15.251Z,54.6
2022-11-17T13:22:16.252Z,54.6
2022-11-17T13:23:18.254Z,54.8
2022-11-17T13:24:20.571Z,54.8
2022-11-17T13:25:22.292Z,55.3
2022-11-17T13:26:24.412Z,55.3
2022-11-17T13:27:26.851Z,55.5
2022-11-17T13:28:28.217Z,55.7
2022-11-17T13:29:29.171Z,55.9
2022-11-17T13:30:30.334Z,56
2022-11-17T13:31:32.412Z,56.1
2022-11-17T13:32:34.453Z,56.2
2022-11-17T13:33:40.126Z,56.4
2022-11-17T13:34:38.781Z,56.3
2022-11-17T13:35:40.712Z,56.3
2022-11-17T13:36:42.393Z,56.3
2022-11-17T13:37:44.253Z,56.2
2022-11-17T13:38:45.192Z,55.9
2022-11-17T13:39:48.803Z,55.5
2022-11-17T13:40:51.672Z,55.4
2022-11-17T13:41:53.999Z,55.3
2022-11-17T13:42:55.833Z,55.3
2022-11-17T13:43:57.276Z,55.2
2022-11-17T13:44:59.232Z,55.2
2022-11-17T13:46:00.294Z,55.5
2022-11-17T13:47:01.222Z,56
2022-11-17T13:48:03.872Z,56.3
2022-11-17T13:49:05.414Z,55.6
2022-11-17T13:50:07.697Z,56
2022-11-17T13:51:09.952Z,56.2
2022-11-17T13:52:11.339Z,56.2